sensor_id;sensor_type;location;lat;lon;timestamp;P1;durP1;ratioP1;P2;durP2;ratioP2
18136;SDS011;9194;42.632;23.298;2022-07-29T00:02:15;9.55;;;6.50;;
18136;SDS011;9194;42.632;23.298;2022-07-29T00:07:17;10.95;;;6.18;;
18136;SDS011;9194;42.632;23.298;2022-07-29T00:12:22;10.57;;;6.15;;
18136;SDS011;9194;42.632;23.298;2022-07-29T00:17:25;8.82;;;6.07;;
18136;SDS011;9194;42.632;23.298;2022-07-29T00:22:26;7.53;;;5.80;;
18136;SDS011;9194;42.632;23.298;2022-07-29T00:27:28;11.88;;;6.55;;
18136;SDS011;9194;42.632;23.298;2022-07-29T00:32:29;7.00;;;6.05;;
18136;SDS011;9194;42.632;23.298;2022-07-29T00:37:30;11.25;;;7.60;;
18136;SDS011;9194;42.632;23.298;2022-07-29T00:42:41;11.23;;;6.78;;
18136;SDS011;9194;42.632;23.298;2022-07-29T00:47:45;9.02;;;6.78;;
18136;SDS011;9194;42.632;23.298;2022-07-29T00:52:47;9.27;;;6.82;;
18136;SDS011;9194;42.632;23.298;2022-07-29T00:57:48;9.88;;;6.85;;
18136;SDS011;9194;42.632;23.298;2022-07-29T01:02:50;9.05;;;7.35;;
18136;SDS011;9194;42.632;23.298;2022-07-29T01:07:52;9.35;;;6.68;;
18136;SDS011;9194;42.632;23.298;2022-07-29T01:12:57;10.45;;;7.22;;
18136;SDS011;9194;42.632;23.298;2022-07-29T01:23:28;9.35;;;7.72;;
18136;SDS011;9194;42.632;23.298;2022-07-29T01:33:48;11.02;;;7.30;;
18136;SDS011;9194;42.632;23.298;2022-07-29T01:44:31;10.23;;;6.85;;
18136;SDS011;9194;42.632;23.298;2022-07-29T01:49:35;9.88;;;7.35;;
18136;SDS011;9194;42.632;23.298;2022-07-29T01:55:04;8.50;;;7.25;;
18136;SDS011;9194;42.632;23.298;2022-07-29T02:00:09;10.00;;;7.68;;
18136;SDS011;9194;42.632;23.298;2022-07-29T02:05:14;10.57;;;6.95;;
18136;SDS011;9194;42.632;23.298;2022-07-29T02:10:18;9.23;;;7.05;;
18136;SDS011;9194;42.632;23.298;2022-07-29T02:15:24;9.30;;;6.75;;
18136;SDS011;9194;42.632;23.298;2022-07-29T02:20:27;8.15;;;6.53;;
18136;SDS011;9194;42.632;23.298;2022-07-29T02:25:29;11.57;;;6.63;;
18136;SDS011;9194;42.632;23.298;2022-07-29T02:30:31;8.48;;;6.70;;
18136;SDS011;9194;42.632;23.298;2022-07-29T02:35:35;13.85;;;7.20;;
18136;SDS011;9194;42.632;23.298;2022-07-29T02:40:38;14.50;;;7.28;;
18136;SDS011;9194;42.632;23.298;2022-07-29T02:45:43;10.68;;;6.22;;
18136;SDS011;9194;42.632;23.298;2022-07-29T02:50:49;9.48;;;6.68;;
18136;SDS011;9194;42.632;23.298;2022-07-29T02:55:57;7.68;;;6.38;;
18136;SDS011;9194;42.632;23.298;2022-07-29T03:01:02;11.40;;;6.38;;
18136;SDS011;9194;42.632;23.298;2022-07-29T03:06:16;9.63;;;7.75;;
18136;SDS011;9194;42.632;23.298;2022-07-29T03:11:18;11.90;;;7.43;;
18136;SDS011;9194;42.632;23.298;2022-07-29T03:16:20;9.48;;;7.15;;
18136;SDS011;9194;42.632;23.298;2022-07-29T03:21:24;11.38;;;7.55;;
18136;SDS011;9194;42.632;23.298;2022-07-29T03:26:25;12.75;;;7.18;;
18136;SDS011;9194;42.632;23.298;2022-07-29T03:31:31;12.25;;;7.45;;
18136;SDS011;9194;42.632;23.298;2022-07-29T03:36:32;10.50;;;7.28;;
18136;SDS011;9194;42.632;23.298;2022-07-29T03:41:33;12.57;;;7.50;;
18136;SDS011;9194;42.632;23.298;2022-07-29T03:46:37;8.90;;;6.93;;
18136;SDS011;9194;42.632;23.298;2022-07-29T03:51:40;8.95;;;7.07;;
18136;SDS011;9194;42.632;23.298;2022-07-29T03:56:42;11.32;;;7.07;;
18136;SDS011;9194;42.632;23.298;2022-07-29T04:01:49;8.13;;;5.65;;
18136;SDS011;9194;42.632;23.298;2022-07-29T04:17:52;8.05;;;5.93;;
18136;SDS011;9194;42.632;23.298;2022-07-29T04:22:53;12.77;;;7.63;;
18136;SDS011;9194;42.632;23.298;2022-07-29T04:27:55;8.15;;;6.93;;
18136;SDS011;9194;42.632;23.298;2022-07-29T04:33:03;8.85;;;7.15;;
18136;SDS011;9194;42.632;23.298;2022-07-29T04:38:05;9.00;;;6.53;;
18136;SDS011;9194;42.632;23.298;2022-07-29T04:43:07;10.95;;;6.60;;
18136;SDS011;9194;42.632;23.298;2022-07-29T04:48:08;7.90;;;5.80;;
18136;SDS011;9194;42.632;23.298;2022-07-29T04:53:09;9.65;;;5.32;;
18136;SDS011;9194;42.632;23.298;2022-07-29T04:58:18;13.70;;;6.95;;
18136;SDS011;9194;42.632;23.298;2022-07-29T05:03:24;11.88;;;9.35;;
18136;SDS011;9194;42.632;23.298;2022-07-29T05:08:25;22.75;;;10.73;;
18136;SDS011;9194;42.632;23.298;2022-07-29T05:13:27;14.23;;;9.50;;
18136;SDS011;9194;42.632;23.298;2022-07-29T05:18:28;14.35;;;8.98;;
18136;SDS011;9194;42.632;23.298;2022-07-29T05:23:30;13.02;;;8.68;;
18136;SDS011;9194;42.632;23.298;2022-07-29T05:28:34;14.82;;;8.05;;
18136;SDS011;9194;42.632;23.298;2022-07-29T05:33:36;9.95;;;6.93;;
18136;SDS011;9194;42.632;23.298;2022-07-29T05:38:37;12.32;;;7.28;;
18136;SDS011;9194;42.632;23.298;2022-07-29T05:49:39;11.98;;;6.90;;
18136;SDS011;9194;42.632;23.298;2022-07-29T05:54:40;10.95;;;6.20;;
18136;SDS011;9194;42.632;23.298;2022-07-29T05:59:42;8.05;;;5.18;;
18136;SDS011;9194;42.632;23.298;2022-07-29T06:04:43;10.00;;;5.45;;
18136;SDS011;9194;42.632;23.298;2022-07-29T06:09:44;8.10;;;5.60;;
18136;SDS011;9194;42.632;23.298;2022-07-29T06:14:46;14.15;;;5.40;;
18136;SDS011;9194;42.632;23.298;2022-07-29T06:19:53;11.57;;;5.60;;
18136;SDS011;9194;42.632;23.298;2022-07-29T06:24:54;7.05;;;5.18;;
18136;SDS011;9194;42.632;23.298;2022-07-29T06:29:55;10.48;;;5.20;;
18136;SDS011;9194;42.632;23.298;2022-07-29T06:34:57;12.35;;;5.15;;
18136;SDS011;9194;42.632;23.298;2022-07-29T06:39:58;8.18;;;5.22;;
18136;SDS011;9194;42.632;23.298;2022-07-29T06:50:46;4.70;;;4.28;;
18136;SDS011;9194;42.632;23.298;2022-07-29T06:55:48;9.02;;;5.07;;
18136;SDS011;9194;42.632;23.298;2022-07-29T07:00:49;7.25;;;4.60;;
18136;SDS011;9194;42.632;23.298;2022-07-29T07:05:51;12.02;;;4.82;;
18136;SDS011;9194;42.632;23.298;2022-07-29T07:10:53;7.45;;;5.07;;
18136;SDS011;9194;42.632;23.298;2022-07-29T07:15:55;7.20;;;4.82;;
18136;SDS011;9194;42.632;23.298;2022-07-29T07:20:57;10.57;;;5.45;;
18136;SDS011;9194;42.632;23.298;2022-07-29T07:25:58;6.28;;;5.20;;
18136;SDS011;9194;42.632;23.298;2022-07-29T07:31:00;10.32;;;5.75;;
18136;SDS011;9194;42.632;23.298;2022-07-29T07:36:01;5.45;;;4.85;;
18136;SDS011;9194;42.632;23.298;2022-07-29T07:41:03;6.25;;;4.75;;
18136;SDS011;9194;42.632;23.298;2022-07-29T07:46:04;7.88;;;4.82;;
18136;SDS011;9194;42.632;23.298;2022-07-29T07:51:06;4.68;;;4.20;;
18136;SDS011;9194;42.632;23.298;2022-07-29T07:56:18;4.78;;;4.30;;
18136;SDS011;9194;42.632;23.298;2022-07-29T08:01:19;4.82;;;3.72;;
18136;SDS011;9194;42.632;23.298;2022-07-29T08:06:23;4.47;;;3.45;;
18136;SDS011;9194;42.632;23.298;2022-07-29T08:11:26;3.55;;;3.25;;
18136;SDS011;9194;42.632;23.298;2022-07-29T08:16:27;5.93;;;3.55;;
18136;SDS011;9194;42.632;23.298;2022-07-29T08:21:29;4.05;;;3.65;;
18136;SDS011;9194;42.632;23.298;2022-07-29T08:26:31;8.98;;;4.22;;
18136;SDS011;9194;42.632;23.298;2022-07-29T08:31:32;5.88;;;3.72;;
18136;SDS011;9194;42.632;23.298;2022-07-29T08:36:33;4.63;;;3.15;;
18136;SDS011;9194;42.632;23.298;2022-07-29T08:41:35;5.20;;;3.22;;
18136;SDS011;9194;42.632;23.298;2022-07-29T08:46:37;4.07;;;3.42;;
18136;SDS011;9194;42.632;23.298;2022-07-29T08:51:40;4.38;;;3.97;;
18136;SDS011;9194;42.632;23.298;2022-07-29T08:56:42;4.05;;;3.55;;
18136;SDS011;9194;42.632;23.298;2022-07-29T09:01:44;5.05;;;3.45;;
18136;SDS011;9194;42.632;23.298;2022-07-29T09:06:48;4.88;;;3.58;;
18136;SDS011;9194;42.632;23.298;2022-07-29T09:11:52;4.65;;;3.50;;
18136;SDS011;9194;42.632;23.298;2022-07-29T09:16:54;6.05;;;3.75;;
18136;SDS011;9194;42.632;23.298;2022-07-29T09:21:57;9.85;;;3.78;;
18136;SDS011;9194;42.632;23.298;2022-07-29T09:26:59;4.60;;;3.90;;
18136;SDS011;9194;42.632;23.298;2022-07-29T09:32:01;3.78;;;3.40;;
18136;SDS011;9194;42.632;23.298;2022-07-29T09:37:25;4.90;;;3.60;;
18136;SDS011;9194;42.632;23.298;2022-07-29T09:42:28;4.20;;;3.47;;
18136;SDS011;9194;42.632;23.298;2022-07-29T09:47:48;4.07;;;3.75;;
18136;SDS011;9194;42.632;23.298;2022-07-29T09:52:50;4.13;;;3.60;;
18136;SDS011;9194;42.632;23.298;2022-07-29T09:57:53;5.00;;;3.83;;
18136;SDS011;9194;42.632;23.298;2022-07-29T10:02:54;5.63;;;3.85;;
18136;SDS011;9194;42.632;23.298;2022-07-29T10:08:01;7.75;;;3.65;;
18136;SDS011;9194;42.632;23.298;2022-07-29T10:13:08;7.43;;;4.13;;
18136;SDS011;9194;42.632;23.298;2022-07-29T10:18:11;7.78;;;4.30;;
18136;SDS011;9194;42.632;23.298;2022-07-29T10:23:14;4.47;;;4.07;;
18136;SDS011;9194;42.632;23.298;2022-07-29T10:28:18;4.45;;;3.97;;
18136;SDS011;9194;42.632;23.298;2022-07-29T10:44:17;6.15;;;4.38;;
18136;SDS011;9194;42.632;23.298;2022-07-29T10:49:21;6.70;;;4.43;;
18136;SDS011;9194;42.632;23.298;2022-07-29T11:15:19;4.15;;;3.70;;
18136;SDS011;9194;42.632;23.298;2022-07-29T11:20:41;4.60;;;4.20;;
18136;SDS011;9194;42.632;23.298;2022-07-29T11:25:42;8.75;;;4.28;;
18136;SDS011;9194;42.632;23.298;2022-07-29T11:30:47;4.82;;;4.32;;
18136;SDS011;9194;42.632;23.298;2022-07-29T11:51:52;13.30;;;3.90;;
18136;SDS011;9194;42.632;23.298;2022-07-29T11:56:55;4.88;;;4.20;;
18136;SDS011;9194;42.632;23.298;2022-07-29T12:01:59;8.20;;;3.78;;
18136;SDS011;9194;42.632;23.298;2022-07-29T12:07:00;4.75;;;4.28;;
18136;SDS011;9194;42.632;23.298;2022-07-29T12:12:01;5.25;;;4.60;;
18136;SDS011;9194;42.632;23.298;2022-07-29T12:17:03;4.50;;;4.10;;
18136;SDS011;9194;42.632;23.298;2022-07-29T12:22:04;6.57;;;4.40;;
18136;SDS011;9194;42.632;23.298;2022-07-29T12:27:05;7.18;;;4.25;;
18136;SDS011;9194;42.632;23.298;2022-07-29T12:32:07;11.70;;;4.68;;
18136;SDS011;9194;42.632;23.298;2022-07-29T12:37:08;7.50;;;3.97;;
18136;SDS011;9194;42.632;23.298;2022-07-29T12:42:14;4.43;;;3.97;;
18136;SDS011;9194;42.632;23.298;2022-07-29T12:47:16;6.70;;;4.35;;
18136;SDS011;9194;42.632;23.298;2022-07-29T12:52:32;4.47;;;4.07;;
18136;SDS011;9194;42.632;23.298;2022-07-29T12:57:45;9.13;;;4.03;;
18136;SDS011;9194;42.632;23.298;2022-07-29T13:02:58;4.47;;;4.07;;
18136;SDS011;9194;42.632;23.298;2022-07-29T13:08:13;11.82;;;4.45;;
18136;SDS011;9194;42.632;23.298;2022-07-29T13:13:16;4.78;;;3.78;;
18136;SDS011;9194;42.632;23.298;2022-07-29T13:18:29;4.65;;;4.20;;
18136;SDS011;9194;42.632;23.298;2022-07-29T13:23:31;8.50;;;4.63;;
18136;SDS011;9194;42.632;23.298;2022-07-29T13:28:33;5.15;;;4.03;;
18136;SDS011;9194;42.632;23.298;2022-07-29T13:33:34;3.88;;;3.58;;
18136;SDS011;9194;42.632;23.298;2022-07-29T13:38:36;4.38;;;3.97;;
18136;SDS011;9194;42.632;23.298;2022-07-29T13:43:37;5.43;;;3.70;;
18136;SDS011;9194;42.632;23.298;2022-07-29T13:48:38;4.25;;;3.83;;
18136;SDS011;9194;42.632;23.298;2022-07-29T13:53:40;4.45;;;3.95;;
18136;SDS011;9194;42.632;23.298;2022-07-29T13:58:41;8.77;;;3.53;;
18136;SDS011;9194;42.632;23.298;2022-07-29T14:03:42;4.75;;;3.95;;
18136;SDS011;9194;42.632;23.298;2022-07-29T14:08:44;4.25;;;3.85;;
18136;SDS011;9194;42.632;23.298;2022-07-29T14:13:45;5.07;;;4.18;;
18136;SDS011;9194;42.632;23.298;2022-07-29T14:18:46;6.25;;;3.92;;
18136;SDS011;9194;42.632;23.298;2022-07-29T14:23:47;5.60;;;3.88;;
18136;SDS011;9194;42.632;23.298;2022-07-29T14:28:49;6.35;;;4.30;;
18136;SDS011;9194;42.632;23.298;2022-07-29T14:33:51;6.25;;;3.90;;
18136;SDS011;9194;42.632;23.298;2022-07-29T14:38:52;6.35;;;4.05;;
18136;SDS011;9194;42.632;23.298;2022-07-29T14:43:54;6.20;;;4.88;;
18136;SDS011;9194;42.632;23.298;2022-07-29T14:48:55;6.43;;;4.35;;
18136;SDS011;9194;42.632;23.298;2022-07-29T14:53:56;4.45;;;4.05;;
18136;SDS011;9194;42.632;23.298;2022-07-29T14:58:58;6.35;;;4.40;;
18136;SDS011;9194;42.632;23.298;2022-07-29T15:04:00;5.63;;;4.13;;
18136;SDS011;9194;42.632;23.298;2022-07-29T15:09:01;5.93;;;4.45;;
18136;SDS011;9194;42.632;23.298;2022-07-29T15:14:02;6.80;;;4.68;;
18136;SDS011;9194;42.632;23.298;2022-07-29T15:19:04;5.65;;;4.55;;
18136;SDS011;9194;42.632;23.298;2022-07-29T15:24:05;6.15;;;4.80;;
18136;SDS011;9194;42.632;23.298;2022-07-29T15:29:08;5.28;;;4.78;;
18136;SDS011;9194;42.632;23.298;2022-07-29T15:34:09;7.32;;;4.47;;
18136;SDS011;9194;42.632;23.298;2022-07-29T15:39:10;5.35;;;4.65;;
18136;SDS011;9194;42.632;23.298;2022-07-29T15:44:12;5.22;;;4.60;;
18136;SDS011;9194;42.632;23.298;2022-07-29T15:49:13;5.18;;;4.63;;
18136;SDS011;9194;42.632;23.298;2022-07-29T15:54:14;6.65;;;4.85;;
18136;SDS011;9194;42.632;23.298;2022-07-29T15:59:17;7.63;;;5.25;;
18136;SDS011;9194;42.632;23.298;2022-07-29T16:04:20;5.55;;;4.78;;
18136;SDS011;9194;42.632;23.298;2022-07-29T16:09:22;5.60;;;4.90;;
18136;SDS011;9194;42.632;23.298;2022-07-29T16:14:23;6.53;;;5.47;;
18136;SDS011;9194;42.632;23.298;2022-07-29T16:19:25;8.50;;;5.20;;
18136;SDS011;9194;42.632;23.298;2022-07-29T16:24:26;6.25;;;5.10;;
18136;SDS011;9194;42.632;23.298;2022-07-29T16:29:29;9.32;;;5.05;;
18136;SDS011;9194;42.632;23.298;2022-07-29T16:34:31;7.30;;;5.30;;
18136;SDS011;9194;42.632;23.298;2022-07-29T16:39:32;8.90;;;5.68;;
18136;SDS011;9194;42.632;23.298;2022-07-29T16:44:33;7.32;;;5.32;;
18136;SDS011;9194;42.632;23.298;2022-07-29T16:49:34;8.35;;;6.10;;
18136;SDS011;9194;42.632;23.298;2022-07-29T16:54:36;9.75;;;5.88;;
18136;SDS011;9194;42.632;23.298;2022-07-29T16:59:37;6.82;;;5.55;;
18136;SDS011;9194;42.632;23.298;2022-07-29T17:10:07;11.40;;;5.38;;
18136;SDS011;9194;42.632;23.298;2022-07-29T17:15:10;8.05;;;5.88;;
18136;SDS011;9194;42.632;23.298;2022-07-29T17:20:12;8.50;;;5.60;;
18136;SDS011;9194;42.632;23.298;2022-07-29T17:25:15;19.88;;;6.50;;
18136;SDS011;9194;42.632;23.298;2022-07-29T17:30:16;6.93;;;5.47;;
18136;SDS011;9194;42.632;23.298;2022-07-29T17:35:17;6.93;;;5.45;;
18136;SDS011;9194;42.632;23.298;2022-07-29T17:46:28;10.57;;;5.00;;
18136;SDS011;9194;42.632;23.298;2022-07-29T17:51:30;6.82;;;5.22;;
18136;SDS011;9194;42.632;23.298;2022-07-29T17:56:31;7.15;;;5.35;;
18136;SDS011;9194;42.632;23.298;2022-07-29T18:01:32;9.50;;;4.93;;
18136;SDS011;9194;42.632;23.298;2022-07-29T18:06:34;8.55;;;4.93;;
18136;SDS011;9194;42.632;23.298;2022-07-29T18:11:36;5.93;;;5.03;;
18136;SDS011;9194;42.632;23.298;2022-07-29T18:16:37;6.70;;;4.97;;
18136;SDS011;9194;42.632;23.298;2022-07-29T18:21:38;12.05;;;5.35;;
18136;SDS011;9194;42.632;23.298;2022-07-29T18:26:39;10.68;;;5.20;;
18136;SDS011;9194;42.632;23.298;2022-07-29T18:31:41;7.40;;;5.65;;
18136;SDS011;9194;42.632;23.298;2022-07-29T18:36:42;10.45;;;5.60;;
18136;SDS011;9194;42.632;23.298;2022-07-29T18:41:43;6.60;;;5.75;;
18136;SDS011;9194;42.632;23.298;2022-07-29T18:46:50;5.63;;;5.13;;
18136;SDS011;9194;42.632;23.298;2022-07-29T18:51:52;7.35;;;4.93;;
18136;SDS011;9194;42.632;23.298;2022-07-29T18:56:53;7.65;;;4.72;;
18136;SDS011;9194;42.632;23.298;2022-07-29T19:01:55;4.55;;;4.15;;
18136;SDS011;9194;42.632;23.298;2022-07-29T19:06:56;5.78;;;4.47;;
18136;SDS011;9194;42.632;23.298;2022-07-29T19:12:02;6.93;;;4.75;;
18136;SDS011;9194;42.632;23.298;2022-07-29T19:17:04;5.90;;;4.40;;
18136;SDS011;9194;42.632;23.298;2022-07-29T19:22:05;5.20;;;4.00;;
18136;SDS011;9194;42.632;23.298;2022-07-29T19:27:06;4.10;;;3.70;;
18136;SDS011;9194;42.632;23.298;2022-07-29T19:32:08;6.35;;;4.70;;
18136;SDS011;9194;42.632;23.298;2022-07-29T19:37:10;4.03;;;3.63;;
18136;SDS011;9194;42.632;23.298;2022-07-29T19:42:11;4.53;;;4.03;;
18136;SDS011;9194;42.632;23.298;2022-07-29T19:47:13;4.85;;;3.75;;
18136;SDS011;9194;42.632;23.298;2022-07-29T19:52:14;4.65;;;3.78;;
18136;SDS011;9194;42.632;23.298;2022-07-29T19:57:15;6.93;;;3.58;;
18136;SDS011;9194;42.632;23.298;2022-07-29T20:02:16;3.80;;;3.50;;
18136;SDS011;9194;42.632;23.298;2022-07-29T20:07:18;4.45;;;3.28;;
18136;SDS011;9194;42.632;23.298;2022-07-29T20:12:20;5.53;;;3.28;;
18136;SDS011;9194;42.632;23.298;2022-07-29T20:17:22;4.15;;;3.42;;
18136;SDS011;9194;42.632;23.298;2022-07-29T20:22:24;3.28;;;2.97;;
18136;SDS011;9194;42.632;23.298;2022-07-29T20:27:25;3.50;;;3.20;;
18136;SDS011;9194;42.632;23.298;2022-07-29T20:43:08;3.17;;;2.88;;
18136;SDS011;9194;42.632;23.298;2022-07-29T20:48:09;5.28;;;2.90;;
18136;SDS011;9194;42.632;23.298;2022-07-29T20:53:10;5.43;;;3.55;;
18136;SDS011;9194;42.632;23.298;2022-07-29T21:03:32;3.08;;;2.88;;
18136;SDS011;9194;42.632;23.298;2022-07-29T21:08:34;3.08;;;2.80;;
18136;SDS011;9194;42.632;23.298;2022-07-29T21:13:35;3.17;;;2.65;;
18136;SDS011;9194;42.632;23.298;2022-07-29T21:18:39;3.70;;;2.80;;
18136;SDS011;9194;42.632;23.298;2022-07-29T21:23:43;3.15;;;2.85;;
18136;SDS011;9194;42.632;23.298;2022-07-29T21:28:45;4.55;;;3.00;;
18136;SDS011;9194;42.632;23.298;2022-07-29T21:33:47;5.38;;;3.15;;
18136;SDS011;9194;42.632;23.298;2022-07-29T21:38:48;4.40;;;2.90;;
18136;SDS011;9194;42.632;23.298;2022-07-29T21:43:49;4.38;;;2.70;;
18136;SDS011;9194;42.632;23.298;2022-07-29T21:48:50;4.28;;;2.88;;
18136;SDS011;9194;42.632;23.298;2022-07-29T21:53:52;4.75;;;2.55;;
18136;SDS011;9194;42.632;23.298;2022-07-29T21:58:53;7.25;;;2.80;;
18136;SDS011;9194;42.632;23.298;2022-07-29T22:03:55;4.60;;;2.90;;
18136;SDS011;9194;42.632;23.298;2022-07-29T22:08:57;4.55;;;3.00;;
18136;SDS011;9194;42.632;23.298;2022-07-29T22:13:59;7.32;;;3.28;;
18136;SDS011;9194;42.632;23.298;2022-07-29T22:19:00;3.45;;;3.20;;
18136;SDS011;9194;42.632;23.298;2022-07-29T22:24:03;3.85;;;3.50;;
18136;SDS011;9194;42.632;23.298;2022-07-29T22:29:05;3.95;;;3.50;;
18136;SDS011;9194;42.632;23.298;2022-07-29T22:34:06;6.18;;;3.42;;
18136;SDS011;9194;42.632;23.298;2022-07-29T22:39:12;6.35;;;3.85;;
18136;SDS011;9194;42.632;23.298;2022-07-29T22:44:13;6.00;;;3.90;;
18136;SDS011;9194;42.632;23.298;2022-07-29T22:49:15;4.88;;;3.60;;
18136;SDS011;9194;42.632;23.298;2022-07-29T22:54:16;4.88;;;4.05;;
18136;SDS011;9194;42.632;23.298;2022-07-29T22:59:17;3.80;;;3.45;;
18136;SDS011;9194;42.632;23.298;2022-07-29T23:04:19;4.90;;;4.38;;
18136;SDS011;9194;42.632;23.298;2022-07-29T23:09:23;7.43;;;4.35;;
18136;SDS011;9194;42.632;23.298;2022-07-29T23:14:25;8.90;;;4.70;;
18136;SDS011;9194;42.632;23.298;2022-07-29T23:19:26;8.27;;;5.25;;
18136;SDS011;9194;42.632;23.298;2022-07-29T23:24:27;7.20;;;5.13;;
18136;SDS011;9194;42.632;23.298;2022-07-29T23:40:48;7.18;;;4.95;;
18136;SDS011;9194;42.632;23.298;2022-07-29T23:45:50;7.53;;;5.32;;
18136;SDS011;9194;42.632;23.298;2022-07-29T23:50:51;5.80;;;5.20;;
18136;SDS011;9194;42.632;23.298;2022-07-29T23:55:53;7.85;;;5.32;;
